x

East Superior -70 Nm Ne Marquette, Mi (45004) Wave Buoy

3:50pm - Thu 21st Sep 2017 All times are CDT. -5 hours from GMT.

  • Sig Wave height 0.7ft
  • Average Period 3s
  • Wind
    2mph, 4mph gusts
  • Air Temp 60°f
  • Sea Pressure 1017mb
  • East Superior -70 Nm Ne Marquette, Mi
  • East Superior -70 Nm Ne Marquette, Mi

More Historic Weather Station data

Upgrade to MSW Pro to gain access to the past 30 days of data for over 8000 Wavebouys and Weather Stations around the globe.

Join

Comparision Forecast

View Surf forecast
   
Thu 09/21 3:50pm 0.7ft  -  3s 2 4 mph 1017mb 60f
2:50pm 0.7ft  -  3s 4 7 mph 1017mb 60f
1:50pm 0.7ft  -  3s 4 7 mph 1017.4mb 59f
12:50pm 0.7ft  -  3s 7 7 mph 1017.5mb 59f
11:50am 0.7ft  -  3s 9 9 mph 1017.5mb 59f
10:50am 1ft 4s 3s 7 9 mph 1017.4mb 58f
9:50am 1ft 4s 3s 9 11 mph 1017.4mb 58f
8:50am 1ft 4s 3s 9 11 mph 1017.3mb 58f
7:50am 1ft 4s 3s 9 11 mph 1016.9mb 58f
6:50am 1.3ft 5s 3s 9 9 mph 1016.7mb 57f
5:50am 1.3ft 5s 3s 9 11 mph 1016.1mb 55f
4:50am 1.3ft 5s 3s 9 11 mph 1015.7mb 57f
3:50am 1.3ft 5s 4s 11 13 mph 1014.6mb 57f
2:50am 1.3ft 4s 4s 11 11 mph 1014.4mb 57f
1:50am 1.6ft 5s 4s 11 13 mph 1013.9mb 58f
12:50am 1.6ft 4s 4s 9 11 mph 1013.6mb 61f
Wed 09/20 11:50pm 2ft 5s 4s 7 7 mph 1013.2mb 62f
10:50pm 2.5ft 5s 4s 11 13 mph 1012mb 61f
9:50pm 2.5ft 5s 4s 9 9 mph 1010.8mb 62f
8:50pm 2.5ft 4s 4s 7 9 mph 1010.5mb 62f
7:50pm 2.5ft 5s 4s 7 9 mph 1010.3mb 62f
6:50pm 3ft 4s 4s 13 18 mph 1009.6mb 62f
5:50pm 3ft 5s 4s 11 16 mph 1009.4mb 62f
4:50pm 3ft 5s 4s 16 18 mph 1009.3mb 62f
3:50pm 3.5ft 5s 4s 4 4 mph 1010.3mb 60f
2:50pm 3.5ft 5s 4s 16 20 mph 1008.9mb 61f
1:50pm 3ft 5s 4s 18 22 mph 1008.4mb 61f
12:50pm 3.5ft 5s 4s 20 22 mph 1009.4mb 61f
11:50am 3ft 5s 4s 20 25 mph 1010.2mb 61f
10:50am 2.5ft 5s 4s 20 22 mph 1010.7mb 61f
9:50am 3.5ft 5s 4s 13 16 mph 1013.1mb 60f
8:50am 3.5ft 5s 4s 18 22 mph 1012.7mb 61f
7:50am 3.5ft 4s 4s 22 25 mph 1012mb 60f
6:50am 2.5ft 4s 4s 18 20 mph 1013.1mb 60f
5:50am 2.5ft 4s 4s 18 20 mph 1012.8mb 59f
4:50am 2.5ft 4s 3s 18 22 mph 1012.3mb 60f
3:50am 2.5ft 4s 3s 18 20 mph 1012.6mb 59f
2:50am 2ft 4s 3s 16 20 mph 1012.9mb 60f
1:50am 2ft 3s 3s 16 18 mph 1013.2mb 60f
12:50am 1.6ft 3s 3s 16 18 mph 1013.5mb 61f
Tue 09/19 11:50pm 1.3ft 3s 3s 16 18 mph 1013.5mb 60f
10:50pm 1.3ft 3s 3s 16 18 mph 1014.1mb 60f
9:50pm 1.3ft 3s 3s 13 18 mph 1014.5mb 60f
8:50pm 1.3ft 3s 3s 13 13 mph 1015.2mb 60f
7:50pm 1.3ft 4s  -  11 11 mph 1014.9mb 61f
6:50pm 1.3ft 4s 4s 11 13 mph 1014.7mb 61f
5:50pm 1ft 4s 3s 11 13 mph 1014.9mb 61f
4:50pm 1.3ft 4s 3s 11 13 mph 1015.5mb 60f
3:50pm 1.3ft 4s 3s 11 11 mph 1016mb 60f
2:50pm 1.3ft 4s 3s 11 16 mph 1016.3mb 60f
1:50pm 1.3ft 4s 3s 11 11 mph 1016.7mb 59f
12:50pm 1.3ft 3s 3s 11 13 mph 1017.3mb 59f
11:50am 1.6ft 4s 3s 13 13 mph 1017.6mb 59f
10:50am 1.6ft 4s 3s 13 13 mph 1018mb 58f
9:50am 1.6ft 3s 3s 16 16 mph 1017.8mb 58f
8:50am 1.3ft 3s 3s 16 16 mph 1017.7mb 58f
7:50am 1.3ft 3s 3s 16 18 mph 1017.8mb 58f
6:50am 1.3ft 3s 3s 13 16 mph 1018mb 57f
5:50am 1.3ft 3s 3s 13 16 mph 1017.8mb 57f
4:50am 1ft 3s 3s 16 18 mph 1017.7mb 57f
3:50am 0.7ft  -  3s 11 13 mph 1018.3mb 57f
2:50am 0.7ft  -  3s 9 9 mph 1018.4mb 57f
1:50am 0.7ft  -  3s 7 9 mph 1018.9mb 57f
12:50am 0.7ft  -  3s 9 9 mph 1018.7mb 58f
Mon 09/18 11:50pm 0.7ft  -  3s 11 11 mph 1018.7mb 58f
10:50pm 0.3ft  -  3s 9 9 mph 1018.9mb 58f
9:50pm 0.3ft  -  3s 7 7 mph 1018.8mb 57f
8:50pm 0.3ft  -  4s 9 9 mph 1018.6mb 57f
7:50pm 0.3ft  -  4s 9 11 mph 1018.8mb 57f
6:50pm 0.7ft  -  4s 9 9 mph 1019.1mb 57f
5:50pm 0.7ft  -  4s 9 11 mph 1019.3mb 56f
4:50pm 0.7ft  -  4s 7 9 mph 1019.2mb 56f
3:50pm 0.7ft  -  4s 9 11 mph 1019.2mb 56f
2:50pm 1ft 5s 4s 7 9 mph 1020mb 56f
1:50pm 1ft 4s 4s 4 7 mph 1020.5mb 56f
12:50pm 1.3ft 4s 4s 2 4 mph 1021.2mb 56f
11:50am 1.6ft 4s 4s 4 4 mph 1021.6mb 56f
10:50am 2ft 6s 4s 4 4 mph 1021.5mb 56f
9:50am 2ft 5s 4s 2 4 mph 1020.9mb 55f
8:50am 2.5ft 5s 4s 2 4 mph 1020.9mb 55f
7:50am 2.5ft 4s 4s 4 7 mph 1021.1mb 55f
6:50am 2.5ft 4s 4s 9 11 mph 1020.3mb 55f
5:50am 3ft 5s 4s 9 11 mph 1020.1mb 55f
4:50am 3ft 6s 4s 9 11 mph 1019.8mb 55f
3:50am 3ft 4s 4s 9 11 mph 1019.5mb 55f
2:50am 3ft 5s 4s 16 18 mph 1019.2mb 55f
1:50am 3ft 5s 4s 16 20 mph 1019mb 56f
12:50am 3.5ft 7s 5s 18 20 mph 1018.9mb 56f
Sun 09/17 11:50pm 3.5ft 6s 5s 9 11 mph 1018.9mb 56f
10:50pm 4.5ft 7s 5s 13 16 mph 1018.4mb 57f